Relevés horaires Kleine Brogel (Belgique)


Relevés horaires à Kleine Brogel - Jeudi 14 Févr. 2019
Heure UTC1 Température [°C] Vent [km/h] Hum. [%] Pres.4 [hPa] Visi. [Km] Nébu. [octa] Préc.5 [mm] Cond.
2m. Res. Ros. Dir.2 Vit. Moy. Raf.3
23:00 1.6 1.6 -0.2 NNO 1.9 -- 0.0 88 1033.9(-0.2/3h) 16 -- -- --
22:00 2.4 2.4 -0.6 NNO 1.9 -- 1.9 81 1034(-0.3/3h) 20 -- -- --
21:00 3.5 3.5 -0.1 NNO 1.9 -- 3.7 77 1033.9(-0.5/3h) 20 -- -- --
20:00 4.3 4.3 -0.6 NNO 1.9 -- 3.7 70 1034(-0.1/3h) 20 -- -- --
19:00 6.5 6.5 -0.8 NNO 1.9 -- 1.9 60 1034.2(0.0/3h) 20 -- -- --
18:00 7.3 7.3 -1.9 NNO 1.9 -- 5.6 52 1034.2(-0.2/3h) 20 -- -- --
17:00 10.3 10.3 -2.9 NNO 1.9 -- 5.6 39 1034(-1.0/3h) 20 -- -- --
16:00 12.7 12.7 -0.4 NNO 1.9 -- 3.7 40 1034(-1.3/3h) 20 -- -- --
15:00 13.8 13.8 0.4 NNO 1.9 -- 5.6 40 1034.4(-1.7/3h) 20 2/8 -- --
14:00 14.8 14.8 -4.6 NE 3.7 -- 5.6 26 1035(-1.5/3h) 20 2/8 -- --
13:00 13.8 13.8 -2.7 NNO 1.9 -- 3.7 32 1035.4(-1.1/3h) 20 2/8 -- --
12:00 12.4 12.4 -1.2 NNO 1.9 -- 5.6 39 1036.2(-0.4/3h) 10 2/8 -- --
11:00 10.1 10.1 -1.0 NNO 1.9 -- 5.6 46 1036.7(-0.2/3h) 10 2/8 -- --
10:00 8.3 8.3 -0.6 NNO 1.9 -- 3.7 53 1036.7(0.0/3h) 10 2/8 -- --
09:00 3.5 3.5 -0.4 NNO 1.9 -- 1.9 76 1037(0.8/3h) 10 2/8 -- --
08:00 -0.5 -0.5 -1.5 NNO 0.0 -- 0.0 93 1037.2(1.1/3h) 10 2/8 -- --
07:00 -2.6 -2.6 -3.4 NNO 1.9 -- 1.9 94 1037(1.0/3h) 10 2/8 -- --
06:00 -2.6 -2.6 -3.6 NNO 0.0 -- 3.7 93 1036.2(0.4/3h) 10 -- -- --
05:00 -1.7 -1.7 -2.4 NNO 1.9 -- 1.9 95 1036(0.0/3h) 12 -- -- --
04:00 -1.3 -1.3 -2.6 NNO 1.9 -- 3.7 91 1035.9(-0.1/3h) 18 -- -- --
03:00 -0.5 -0.5 -1.4 NNO 3.7 -- 3.7 94 1035.7(-0.4/3h) 8 -- -- --
02:00 -0.1 -0.1 -0.9 NNO 0.0 -- 3.7 94 1036(-0.1/3h) 4.7 -- -- --
01:00 -0.8 -0.8 -1.6 NNO 1.9 -- 3.7 94 1036(-0.3/3h) 3.7 -- -- Du brouillard ou du brouillard glacé (plus correctement designé sous le nom de brume) est observé et la visibilité n'est ni inférieure à 5/8 de mille ni supérieure à 6 milles
00:00 -0.1 -0.1 -1.1 NNO 1.9 -- 3.7 93 1036.2(-0.3/3h) 5 -- -- --

1 Coordinated Universal Time. Actuellement il est 20:00 locale et 18:00 UTC.

2 Le vent souffle depuis la direction indiquée vers la direction oposée.

3 Les rafales max. sont disponible 40 min après l'heure du relevé.

4 Pour les stations d'altitude (plus de 600m) le géopotentiel du niveau le plus proche de la pression obligatoire est indiqué.

5 Les stations disposant d'un diffuseur peuvent indiquer "trace". Cela signifie que des précipitations ont touchés le sol mais que la quantité est inférieure à 0.1 mm.

Récapitulatif de la journée
Température [°C] Vent [km/h] Ensoleillement4 [h] Precipitations totale5 [mm] Pression [Hpa]
Min1 Max.2 Moy.3 Max. Min Max.
-2.7 14.9 0 5.6 0 h 0 min 0 1033.9 1037.2

1 Température minimale relevée entre 18:00 UTC la veille et 18:00 UTC le jour donné.

2 Température maximale relevée entre 06:00 UTC le jour donné et 06:00 UTC le lendemain.

3 Vent moyen de la journée basé sur les relevés horaires.

4 Ensoleillement en heures relevé entre 06:00 UTC la veille et 06:00 UTC le jour donné.

5 Précipitations totales tombées entre 06:00 UTC la jour donné et 06:00 UTC le lendemain.

Graphiques horaires